Time;durP1;ratioP1;P1;durP2;ratioP2;P2;SDS_P1;SDS_P2;PMS_P1;PMS_P2;Temp;Humidity;BMP_temperature;BMP_pressure;BME280_temperature;BME280_humidity;BME280_pressure;Samples;Min_cycle;Max_cycle;Signal;HPM_P1;HPM_P2
2021/01/21 00:01:35;;;;;;;;;;;19.00;56.40;;;;;;5093170;28;1388;-67
2021/01/21 00:04:00;;;;;;;;;;;19.00;56.40;;;;;;5092973;28;1407;-68
2021/01/21 00:06:26;;;;;;;;;;;19.00;56.40;;;;;;5092772;28;1976;-68
2021/01/21 00:08:51;;;;;;;;;;;19.00;56.40;;;;;;5093455;28;1396;-67
2021/01/21 00:11:17;;;;;;;;;;;19.00;56.50;;;;;;5093130;28;1281;-68
2021/01/21 00:13:42;;;;;;;;;;;19.00;56.40;;;;;;5092568;28;1098;-68
2021/01/21 00:16:08;;;;;;;;;;;19.00;56.50;;;;;;5092942;28;1299;-67
2021/01/21 00:18:33;;;;;;;;;;;19.00;56.50;;;;;;5093004;28;1518;-68
2021/01/21 00:20:59;;;;;;;;;;;19.00;56.50;;;;;;5092779;28;1336;-68
2021/01/21 00:23:24;;;;;;;;;;;19.00;56.50;;;;;;5092817;28;1329;-68
2021/01/21 00:25:52;;;;;;;;;;;19.00;56.50;;;;;;5092678;28;1968;-68
2021/01/21 00:28:18;;;;;;;;;;;19.00;56.60;;;;;;5091694;28;1437;-68
2021/01/21 00:30:44;;;;;;;;;;;19.00;56.50;;;;;;5092977;28;1110;-68
2021/01/21 00:33:10;;;;;;;;;;;19.00;56.50;;;;;;5091470;28;1346;-68
2021/01/21 00:35:35;;;;;;;;;;;19.00;56.60;;;;;;5091744;28;1511;-67
2021/01/21 00:38:01;;;;;;;;;;;18.90;56.60;;;;;;5092597;28;1115;-67
2021/01/21 00:40:26;;;;;;;;;;;19.00;56.60;;;;;;5092855;28;1076;-67
2021/01/21 00:42:51;;;;;;;;;;;19.00;56.60;;;;;;5092391;28;1312;-68
2021/01/21 00:45:17;;;;;;;;;;;19.00;56.60;;;;;;5092480;28;1279;-68
2021/01/21 00:47:42;;;;;;;;;;;18.90;56.60;;;;;;5091249;28;1921;-67
2021/01/21 00:50:08;;;;;;;;;;;19.00;56.70;;;;;;5092745;28;1325;-67
2021/01/21 00:52:33;;;;;;;;;;;19.00;56.60;;;;;;5092532;28;1229;-68
2021/01/21 00:54:59;;;;;;;;;;;18.90;56.60;;;;;;5092347;28;1372;-68
2021/01/21 00:57:24;;;;;;;;;;;18.90;57.20;;;;;;5087101;28;1466;-68
2021/01/21 00:59:50;;;;;;;;;;;18.90;56.60;;;;;;5083315;28;1289;-67
2021/01/21 01:02:15;;;;;;;;;;;18.90;56.70;;;;;;5092577;28;1484;-69
2021/01/21 01:04:41;;;;;;;;;;;18.90;56.60;;;;;;5091132;28;1285;-68
2021/01/21 01:07:06;;;;;;;;;;;18.90;56.70;;;;;;5092342;28;1905;-68
2021/01/21 01:09:32;;;;;;;;;;;18.90;56.70;;;;;;5092846;28;1300;-68
2021/01/21 01:11:57;;;;;;;;;;;18.90;56.70;;;;;;5096079;28;1086;-68
2021/01/21 01:14:23;;;;;;;;;;;18.90;56.70;;;;;;5095807;28;1122;-68
2021/01/21 01:16:48;;;;;;;;;;;18.90;56.70;;;;;;5096148;28;1363;-68
2021/01/21 01:19:14;;;;;;;;;;;18.90;56.70;;;;;;5094971;28;1361;-68
2021/01/21 01:21:40;;;;;;;;;;;18.90;56.70;;;;;;5095863;28;1331;-69
2021/01/21 01:24:06;;;;;;;;;;;18.90;56.70;;;;;;5095881;28;1316;-69
2021/01/21 01:26:31;;;;;;;;;;;18.90;56.80;;;;;;5095511;28;1945;-69
2021/01/21 01:28:57;;;;;;;;;;;18.90;56.80;;;;;;5074210;28;2285;-70
2021/01/21 01:31:22;;;;;;;;;;;18.90;56.80;;;;;;5093159;28;1316;-69
2021/01/21 01:33:48;;;;;;;;;;;18.90;56.80;;;;;;5095532;28;1094;-69
2021/01/21 01:36:14;;;;;;;;;;;18.80;56.80;;;;;;5095403;28;1357;-69
2021/01/21 01:38:39;;;;;;;;;;;18.80;56.80;;;;;;5094322;28;1157;-69
2021/01/21 01:41:05;;;;;;;;;;;18.80;56.80;;;;;;5095461;28;1185;-68
2021/01/21 01:43:30;;;;;;;;;;;18.80;57.40;;;;;;5095358;28;1289;-68
2021/01/21 01:45:56;;;;;;;;;;;18.80;56.80;;;;;;5095190;28;1957;-69
2021/01/21 01:48:21;;;;;;;;;;;18.80;56.80;;;;;;5095608;28;1304;-69
2021/01/21 01:50:47;;;;;;;;;;;18.80;56.80;;;;;;5094517;28;1414;-68
2021/01/21 01:53:12;;;;;;;;;;;18.80;56.80;;;;;;5094073;28;1352;-67
2021/01/21 01:55:40;;;;;;;;;;;18.80;56.80;;;;;;5095056;28;1351;-67
2021/01/21 01:58:09;;;;;;;;;;;18.80;56.80;;;;;;5093737;28;1102;-67
2021/01/21 02:00:35;;;;;;;;;;;18.80;56.90;;;;;;5094086;28;1378;-67
2021/01/21 02:03:01;;;;;;;;;;;18.80;56.90;;;;;;5093899;28;1351;-67
2021/01/21 02:05:26;;;;;;;;;;;18.80;56.90;;;;;;5094958;28;1288;-67
2021/01/21 02:07:52;;;;;;;;;;;18.80;56.90;;;;;;5094845;28;1898;-67
2021/01/21 02:10:17;;;;;;;;;;;18.80;56.90;;;;;;5094941;28;1303;-68
2021/01/21 02:12:47;;;;;;;;;;;18.80;56.90;;;;;;5093769;28;1337;-68
2021/01/21 02:15:33;;;;;;;;;;;18.80;56.90;;;;;;5093477;28;1330;-68
2021/01/21 02:18:01;;;;;;;;;;;18.80;56.90;;;;;;5094793;28;1487;-68
2021/01/21 02:20:45;;;;;;;;;;;18.80;56.90;;;;;;5094331;28;1488;-67
2021/01/21 02:23:29;;;;;;;;;;;18.80;57.00;;;;;;5094762;28;1336;-68
2021/01/21 02:26:03;;;;;;;;;;;18.80;57.00;;;;;;5094721;28;1898;-68
2021/01/21 02:28:47;;;;;;;;;;;18.80;57.00;;;;;;5073124;28;1292;-68
2021/01/21 02:31:26;;;;;;;;;;;18.80;57.00;;;;;;5089769;28;1377;-68
2021/01/21 02:34:06;;;;;;;;;;;18.70;56.90;;;;;;5093314;28;1311;-68
2021/01/21 02:36:39;;;;;;;;;;;18.80;57.00;;;;;;5092990;28;1681;-68
2021/01/21 02:39:04;;;;;;;;;;;18.70;57.00;;;;;;5093259;28;1138;-68
2021/01/21 02:41:33;;;;;;;;;;;18.80;57.00;;;;;;5093020;28;1533;-68
2021/01/21 02:43:59;;;;;;;;;;;18.80;56.90;;;;;;5092971;28;1384;-67
2021/01/21 02:46:24;;;;;;;;;;;18.80;56.70;;;;;;5092693;28;1905;-68
2021/01/21 02:48:50;;;;;;;;;;;18.80;56.60;;;;;;5094294;28;1313;-68
2021/01/21 02:51:24;;;;;;;;;;;18.90;56.60;;;;;;5093058;28;1200;-68
2021/01/21 02:53:52;;;;;;;;;;;18.90;56.50;;;;;;5092878;28;1306;-68
2021/01/21 02:56:18;;;;;;;;;;;19.00;56.30;;;;;;5108537;22;2922;-67
2021/01/21 02:58:44;;;;;;;;;;;19.10;56.20;;;;;;5082292;28;1482;-67
2021/01/21 03:01:10;;;;;;;;;;;19.20;56.00;;;;;;5094261;28;1481;-66
2021/01/21 03:03:36;;;;;;;;;;;19.30;55.90;;;;;;5094126;28;1405;-66
2021/01/21 03:06:02;;;;;;;;;;;19.40;55.60;;;;;;5093937;28;1913;-66
2021/01/21 03:08:27;;;;;;;;;;;19.40;55.50;;;;;;5092814;28;1405;-66
2021/01/21 03:11:09;;;;;;;;;;;19.50;55.30;;;;;;5094021;28;1490;-66
2021/01/21 03:13:34;;;;;;;;;;;19.50;55.10;;;;;;5088838;28;1716;-66
2021/01/21 03:16:00;;;;;;;;;;;19.60;55.00;;;;;;5093668;28;1425;-66
2021/01/21 03:18:25;;;;;;;;;;;19.60;54.90;;;;;;5093847;28;1432;-66
2021/01/21 03:20:51;;;;;;;;;;;19.70;54.90;;;;;;5093993;28;1675;-66
2021/01/21 03:23:16;;;;;;;;;;;19.70;54.80;;;;;;5093870;28;1648;-67
2021/01/21 03:25:42;;;;;;;;;;;19.70;54.70;;;;;;5093353;28;1459;-66
2021/01/21 03:28:07;;;;;;;;;;;19.70;54.70;;;;;;5092448;28;1965;-66
2021/01/21 03:30:32;;;;;;;;;;;19.70;54.70;;;;;;5092973;28;1718;-66
2021/01/21 03:32:59;;;;;;;;;;;19.70;54.60;;;;;;5092818;28;1432;-66
2021/01/21 03:35:25;;;;;;;;;;;19.70;54.60;;;;;;5093591;28;1335;-66
2021/01/21 03:37:50;;;;;;;;;;;19.70;54.60;;;;;;5093392;28;1384;-66
2021/01/21 03:40:16;;;;;;;;;;;19.70;54.60;;;;;;5092453;28;1402;-66
2021/01/21 03:42:41;;;;;;;;;;;19.70;54.60;;;;;;5093779;28;1419;-66
2021/01/21 03:45:07;;;;;;;;;;;19.70;54.60;;;;;;5093370;28;1416;-67
2021/01/21 03:47:32;;;;;;;;;;;19.70;54.60;;;;;;5093183;28;1898;-67
2021/01/21 03:49:58;;;;;;;;;;;19.70;54.60;;;;;;5093005;28;1639;-67
2021/01/21 03:52:23;;;;;;;;;;;19.70;54.60;;;;;;5093212;28;1509;-67
2021/01/21 03:54:49;;;;;;;;;;;19.70;54.60;;;;;;5093135;28;1360;-67
2021/01/21 03:57:14;;;;;;;;;;;19.70;54.60;;;;;;5092984;28;1417;-67
2021/01/21 03:59:40;;;;;;;;;;;19.70;54.60;;;;;;5093164;28;1141;-66
2021/01/21 04:02:05;;;;;;;;;;;19.70;54.60;;;;;;5093285;28;1700;-67
2021/01/21 04:04:31;;;;;;;;;;;19.70;54.60;;;;;;5093095;28;1379;-67
2021/01/21 04:06:56;;;;;;;;;;;19.70;54.60;;;;;;5092818;28;1965;-67
2021/01/21 04:09:21;;;;;;;;;;;19.70;54.70;;;;;;5091895;28;1544;-66
2021/01/21 04:11:47;;;;;;;;;;;19.70;54.70;;;;;;5093159;28;1447;-67
2021/01/21 04:14:12;;;;;;;;;;;19.70;54.70;;;;;;5092935;28;1437;-67
2021/01/21 04:16:38;;;;;;;;;;;19.70;54.70;;;;;;5092954;28;1710;-67
2021/01/21 04:19:03;;;;;;;;;;;19.70;54.80;;;;;;5093349;28;1349;-67
2021/01/21 04:21:29;;;;;;;;;;;19.60;54.70;;;;;;5091662;28;1676;-67
2021/01/21 04:24:00;;;;;;;;;;;19.60;54.80;;;;;;5092873;28;1660;-67
2021/01/21 04:26:26;;;;;;;;;;;19.60;54.80;;;;;;5092806;28;1902;-67
2021/01/21 04:28:51;;;;;;;;;;;19.60;54.80;;;;;;5093166;28;1359;-67
2021/01/21 04:31:17;;;;;;;;;;;19.60;54.80;;;;;;5091815;28;1668;-66
2021/01/21 04:33:42;;;;;;;;;;;19.60;54.90;;;;;;5092747;28;1741;-67
2021/01/21 04:36:07;;;;;;;;;;;19.60;54.90;;;;;;5092739;28;1791;-67
2021/01/21 04:38:33;;;;;;;;;;;19.60;54.90;;;;;;5091572;28;1646;-67
2021/01/21 04:40:58;;;;;;;;;;;19.60;54.90;;;;;;5093036;28;1439;-67
2021/01/21 04:43:24;;;;;;;;;;;19.60;55.00;;;;;;5091534;28;1357;-66
2021/01/21 04:45:49;;;;;;;;;;;19.50;55.00;;;;;;5095137;28;1477;-67
2021/01/21 04:48:15;;;;;;;;;;;19.60;55.10;;;;;;5095526;28;1953;-66
2021/01/21 04:50:40;;;;;;;;;;;19.50;55.00;;;;;;5095713;28;1701;-66
2021/01/21 04:53:06;;;;;;;;;;;19.50;55.10;;;;;;5095446;28;1831;-66
2021/01/21 04:55:33;;;;;;;;;;;19.50;55.10;;;;;;5095424;28;1752;-66
2021/01/21 04:58:01;;;;;;;;;;;19.50;55.10;;;;;;5095232;28;1282;-66
2021/01/21 05:00:27;;;;;;;;;;;19.50;55.10;;;;;;5096627;28;1235;-67
2021/01/21 05:02:52;;;;;;;;;;;19.50;55.20;;;;;;5095525;28;1643;-67
2021/01/21 05:05:18;;;;;;;;;;;19.50;55.20;;;;;;5094912;28;1244;-67
2021/01/21 05:07:43;;;;;;;;;;;19.50;55.20;;;;;;5096310;28;1914;-67
2021/01/21 05:10:09;;;;;;;;;;;19.50;55.20;;;;;;5095181;28;1389;-67
2021/01/21 05:12:35;;;;;;;;;;;19.50;55.20;;;;;;5096692;28;1165;-66
2021/01/21 05:15:00;;;;;;;;;;;19.50;55.30;;;;;;5095834;28;1297;-67
2021/01/21 05:17:26;;;;;;;;;;;19.50;55.30;;;;;;5094943;28;1426;-67
2021/01/21 05:19:52;;;;;;;;;;;19.50;55.30;;;;;;5096090;28;1672;-67
2021/01/21 05:22:18;;;;;;;;;;;19.50;55.30;;;;;;5095158;28;1651;-67
2021/01/21 05:24:44;;;;;;;;;;;19.50;55.40;;;;;;5095972;28;1372;-67
2021/01/21 05:27:09;;;;;;;;;;;19.50;55.40;;;;;;5095743;28;1961;-67
2021/01/21 05:29:35;;;;;;;;;;;19.50;55.40;;;;;;5094797;28;1440;-66
2021/01/21 05:32:00;;;;;;;;;;;19.40;55.40;;;;;;5095987;28;1499;-67
2021/01/21 05:34:26;;;;;;;;;;;19.40;55.40;;;;;;5094480;28;1397;-66
2021/01/21 05:36:51;;;;;;;;;;;19.40;55.50;;;;;;5095652;28;1434;-66
2021/01/21 05:39:17;;;;;;;;;;;19.40;55.50;;;;;;5094691;28;1145;-66
2021/01/21 05:41:42;;;;;;;;;;;19.40;55.50;;;;;;5095878;28;1615;-66
2021/01/21 05:44:08;;;;;;;;;;;19.40;55.70;;;;;;5094344;28;1452;-66
2021/01/21 05:46:35;;;;;;;;;;;19.40;55.50;;;;;;5095363;28;1910;-67
2021/01/21 05:49:00;;;;;;;;;;;19.40;55.50;;;;;;5094431;28;1687;-66
2021/01/21 05:51:26;;;;;;;;;;;19.40;55.60;;;;;;5094359;28;1628;-66
2021/01/21 05:53:52;;;;;;;;;;;19.40;55.60;;;;;;5094044;28;1649;-67
2021/01/21 05:56:19;;;;;;;;;;;19.40;55.60;;;;;;5094387;28;1693;-69
2021/01/21 05:58:45;;;;;;;;;;;19.40;55.60;;;;;;5094135;28;1743;-68
2021/01/21 06:01:10;;;;;;;;;;;19.40;55.60;;;;;;5094180;28;1114;-68
2021/01/21 06:03:36;;;;;;;;;;;19.30;55.60;;;;;;5093953;28;1458;-68
2021/01/21 06:06:05;;;;;;;;;;;19.30;55.60;;;;;;5093821;28;1901;-68
2021/01/21 06:08:30;;;;;;;;;;;19.30;55.60;;;;;;5094113;28;1421;-69
2021/01/21 06:10:57;;;;;;;;;;;19.30;55.70;;;;;;5095295;28;1714;-68
2021/01/21 06:13:22;;;;;;;;;;;19.30;55.70;;;;;;5095161;28;1636;-68
2021/01/21 06:15:48;;;;;;;;;;;19.30;55.70;;;;;;5095139;28;1362;-69
2021/01/21 06:18:14;;;;;;;;;;;19.30;55.70;;;;;;5093865;28;1455;-68
2021/01/21 06:20:39;;;;;;;;;;;19.30;55.70;;;;;;5093846;28;1607;-68
2021/01/21 06:23:05;;;;;;;;;;;19.30;55.70;;;;;;5095102;28;1788;-69
2021/01/21 06:25:30;;;;;;;;;;;19.30;55.80;;;;;;5094771;28;1634;-69
2021/01/21 06:27:56;;;;;;;;;;;19.30;55.80;;;;;;5093598;28;1905;-68
2021/01/21 06:30:21;;;;;;;;;;;19.30;55.80;;;;;;5093582;28;1677;-69
2021/01/21 06:33:06;;;;;;;;;;;19.30;55.80;;;;;;5094959;28;1511;-69
2021/01/21 06:35:32;;;;;;;;;;;19.30;55.80;;;;;;5093255;28;1262;-68
2021/01/21 06:37:59;;;;;;;;;;;19.30;55.80;;;;;;5094770;28;1712;-68
2021/01/21 06:40:25;;;;;;;;;;;19.30;55.80;;;;;;5093452;28;1615;-69
2021/01/21 06:42:50;;;;;;;;;;;19.30;55.90;;;;;;5093534;28;1529;-69
2021/01/21 06:45:16;;;;;;;;;;;19.30;55.90;;;;;;5094375;28;1655;-68
2021/01/21 06:47:41;;;;;;;;;;;19.30;55.90;;;;;;5094183;28;1973;-67
2021/01/21 06:50:07;;;;;;;;;;;19.30;55.90;;;;;;5094592;28;1458;-68
2021/01/21 06:52:34;;;;;;;;;;;19.30;55.90;;;;;;5084104;28;2022;-65
2021/01/21 06:55:00;;;;;;;;;;;19.30;56.00;;;;;;5086446;28;2250;-66
2021/01/21 06:57:35;;;;;;;;;;;19.30;55.90;;;;;;5093789;28;1304;-66
2021/01/21 07:00:04;;;;;;;;;;;19.20;55.90;;;;;;5094084;28;1279;-67
2021/01/21 07:03:02;;;;;;;;;;;19.20;56.00;;;;;;5080907;28;1638;-65
2021/01/21 07:05:28;;;;;;;;;;;19.20;56.00;;;;;;5066296;28;1474;-66
2021/01/21 07:07:58;;;;;;;;;;;19.20;56.00;;;;;;5092155;28;1969;-66
2021/01/21 07:10:44;;;;;;;;;;;19.20;56.00;;;;;;5093998;28;1633;-67
2021/01/21 07:13:19;;;;;;;;;;;19.20;56.00;;;;;;5092842;28;1623;-67
2021/01/21 07:15:48;;;;;;;;;;;19.20;56.00;;;;;;5086893;28;1329;-68
2021/01/21 07:18:14;;;;;;;;;;;19.20;56.00;;;;;;5092744;28;1805;-67
2021/01/21 07:20:58;;;;;;;;;;;19.20;56.00;;;;;;5087052;28;1453;-68
2021/01/21 07:23:23;;;;;;;;;;;19.20;56.00;;;;;;5093815;28;1637;-69
2021/01/21 07:25:49;;;;;;;;;;;19.20;56.00;;;;;;5092275;28;1466;-68
2021/01/21 07:28:14;;;;;;;;;;;19.20;56.00;;;;;;5091839;28;1878;-67
2021/01/21 07:30:39;;;;;;;;;;;19.20;56.00;;;;;;5092574;28;1637;-67
2021/01/21 07:33:24;;;;;;;;;;;19.20;56.00;;;;;;5092306;28;1708;-67
2021/01/21 07:35:52;;;;;;;;;;;19.20;56.00;;;;;;5093365;28;1295;-66
2021/01/21 07:38:36;;;;;;;;;;;19.20;56.00;;;;;;5071918;28;1364;-67
2021/01/21 07:41:02;;;;;;;;;;;19.20;56.10;;;;;;5090397;28;1396;-66
2021/01/21 07:43:47;;;;;;;;;;;19.20;56.10;;;;;;5092114;28;1610;-67
2021/01/21 07:46:23;;;;;;;;;;;19.20;56.00;;;;;;5092972;28;1898;-67
2021/01/21 07:48:48;;;;;;;;;;;19.20;56.10;;;;;;5092124;28;1658;-67
2021/01/21 07:51:14;;;;;;;;;;;19.20;56.10;;;;;;5093460;28;1568;-67
2021/01/21 07:53:39;;;;;;;;;;;19.20;56.10;;;;;;5075021;28;2250;-67
2021/01/21 07:56:05;;;;;;;;;;;19.20;56.10;;;;;;5092030;28;1658;-67
2021/01/21 07:58:34;;;;;;;;;;;19.20;56.10;;;;;;5091420;28;1524;-67
2021/01/21 08:01:03;;;;;;;;;;;19.20;56.10;;;;;;5093177;28;1278;-67
2021/01/21 08:03:29;;;;;;;;;;;19.20;56.10;;;;;;5073200;28;1578;-67
2021/01/21 08:06:08;;;;;;;;;;;19.20;56.10;;;;;;5092980;28;1351;-67
2021/01/21 08:08:33;;;;;;;;;;;19.20;56.10;;;;;;5092041;28;1379;-67
2021/01/21 08:11:02;;;;;;;;;;;19.20;56.10;;;;;;5092845;28;1424;-67
2021/01/21 08:13:28;;;;;;;;;;;19.20;56.10;;;;;;5088166;28;1347;-67
2021/01/21 08:15:53;;;;;;;;;;;19.20;56.10;;;;;;5083335;28;1395;-67
2021/01/21 08:18:19;;;;;;;;;;;19.10;56.10;;;;;;5093270;28;1717;-67
2021/01/21 08:20:44;;;;;;;;;;;19.20;56.10;;;;;;5095823;28;1772;-67
2021/01/21 08:23:10;;;;;;;;;;;19.10;56.10;;;;;;5097054;28;1627;-67
2021/01/21 08:25:39;;;;;;;;;;;19.20;56.10;;;;;;5096993;28;1660;-67
2021/01/21 08:28:05;;;;;;;;;;;19.20;56.10;;;;;;5097251;28;1898;-67
2021/01/21 08:30:30;;;;;;;;;;;19.20;56.20;;;;;;5096374;28;1647;-67
2021/01/21 08:33:07;;;;;;;;;;;19.20;56.10;;;;;;5075644;28;1724;-67
2021/01/21 08:35:35;;;;;;;;;;;19.10;56.10;;;;;;5088785;28;1642;-67
2021/01/21 08:38:01;;;;;;;;;;;19.10;56.10;;;;;;5096640;28;1599;-67
2021/01/21 08:40:26;;;;;;;;;;;19.10;56.10;;;;;;5095900;28;1680;-67
2021/01/21 08:42:52;;;;;;;;;;;19.10;56.10;;;;;;5095692;28;1652;-67
2021/01/21 08:45:18;;;;;;;;;;;19.10;56.10;;;;;;5095442;28;1653;-66
2021/01/21 08:47:44;;;;;;;;;;;19.10;56.10;;;;;;5096571;28;1898;-67
2021/01/21 08:50:10;;;;;;;;;;;19.10;56.10;;;;;;5097083;28;1605;-66
2021/01/21 08:52:36;;;;;;;;;;;19.20;56.20;;;;;;5096753;28;1521;-66
2021/01/21 08:55:02;;;;;;;;;;;19.10;56.10;;;;;;5096588;28;1258;-67
2021/01/21 08:57:28;;;;;;;;;;;19.10;56.10;;;;;;5096562;28;1678;-66
2021/01/21 08:59:54;;;;;;;;;;;19.20;56.20;;;;;;5096525;28;1394;-67
2021/01/21 09:02:38;;;;;;;;;;;19.10;56.10;;;;;;5095054;28;1381;-67
2021/01/21 09:05:04;;;;;;;;;;;19.10;56.10;;;;;;5096055;28;1328;-67
2021/01/21 09:07:29;;;;;;;;;;;19.10;56.10;;;;;;5094803;28;1906;-67
2021/01/21 09:09:55;;;;;;;;;;;19.10;56.10;;;;;;5096430;28;1182;-67
2021/01/21 09:12:22;;;;;;;;;;;19.20;56.20;;;;;;5096510;28;1365;-67
2021/01/21 09:15:06;;;;;;;;;;;19.10;56.10;;;;;;5095907;28;1177;-67
2021/01/21 09:17:32;;;;;;;;;;;19.10;56.20;;;;;;5095723;28;1450;-67
2021/01/21 09:19:57;;;;;;;;;;;19.10;56.10;;;;;;5096167;28;1370;-67
2021/01/21 09:22:25;;;;;;;;;;;19.10;56.10;;;;;;5096093;28;1054;-67
2021/01/21 09:24:54;;;;;;;;;;;19.10;56.10;;;;;;5095838;28;1408;-67
2021/01/21 09:27:21;;;;;;;;;;;19.10;56.20;;;;;;5095744;28;1897;-68
2021/01/21 09:29:47;;;;;;;;;;;19.10;56.20;;;;;;5095612;28;1371;-67
2021/01/21 09:32:13;;;;;;;;;;;19.10;56.20;;;;;;5094572;28;1283;-67
2021/01/21 09:34:49;;;;;;;;;;;19.10;56.20;;;;;;5095684;28;1309;-67
2021/01/21 09:37:15;;;;;;;;;;;19.10;56.20;;;;;;5094638;28;1335;-67
2021/01/21 09:39:40;;;;;;;;;;;19.10;56.20;;;;;;5083072;28;1309;-65
2021/01/21 09:42:06;;;;;;;;;;;19.10;56.20;;;;;;5083115;28;1269;-65
2021/01/21 09:44:31;;;;;;;;;;;19.10;56.20;;;;;;5094614;28;1086;-65
2021/01/21 09:46:57;;;;;;;;;;;19.10;56.20;;;;;;5095082;28;1989;-65
2021/01/21 09:49:22;;;;;;;;;;;19.10;56.20;;;;;;5092753;28;1364;-65
2021/01/21 09:51:48;;;;;;;;;;;19.10;56.20;;;;;;5094405;28;1274;-65
2021/01/21 09:54:13;;;;;;;;;;;19.20;56.20;;;;;;5094039;28;1329;-65
2021/01/21 09:56:38;;;;;;;;;;;19.10;56.20;;;;;;5094960;28;1273;-65
2021/01/21 09:59:04;;;;;;;;;;;19.10;56.20;;;;;;5094593;28;1283;-65
2021/01/21 10:01:29;;;;;;;;;;;19.10;56.20;;;;;;5090568;28;2038;-65
2021/01/21 10:03:55;;;;;;;;;;;19.10;56.20;;;;;;5093648;28;1054;-67
2021/01/21 10:06:20;;;;;;;;;;;19.10;56.20;;;;;;5093873;28;1902;-65
2021/01/21 10:08:46;;;;;;;;;;;19.10;56.10;;;;;;5094067;28;1272;-65
2021/01/21 10:11:11;;;;;;;;;;;19.10;56.00;;;;;;5093841;28;987;-65
2021/01/21 10:13:37;;;;;;;;;;;19.20;56.00;;;;;;5093239;28;1352;-66
2021/01/21 10:16:02;;;;;;;;;;;19.30;55.90;;;;;;5090816;28;2043;-66
2021/01/21 10:18:28;;;;;;;;;;;19.30;55.80;;;;;;5076663;28;1074;-66
2021/01/21 10:20:53;;;;;;;;;;;19.40;55.70;;;;;;5072337;28;1234;-66
2021/01/21 10:23:19;;;;;;;;;;;19.50;55.50;;;;;;5091234;28;1301;-66
2021/01/21 10:25:44;;;;;;;;;;;19.60;55.30;;;;;;5093615;28;1357;-66
2021/01/21 10:28:10;;;;;;;;;;;19.70;55.20;;;;;;5093328;28;1906;-66
2021/01/21 10:30:35;;;;;;;;;;;19.80;55.00;;;;;;5093582;28;1302;-66
2021/01/21 10:33:01;;;;;;;;;;;19.90;54.80;;;;;;5093473;28;1253;-66
2021/01/21 10:35:26;;;;;;;;;;;19.90;54.60;;;;;;5086484;28;1289;-66
2021/01/21 10:37:52;;;;;;;;;;;20.00;54.50;;;;;;5093240;28;1357;-66
2021/01/21 10:40:17;;;;;;;;;;;20.00;54.30;;;;;;5093562;28;1312;-66
2021/01/21 10:42:43;;;;;;;;;;;20.10;54.30;;;;;;5092875;28;1204;-66
2021/01/21 10:45:08;;;;;;;;;;;20.20;54.20;;;;;;5093090;28;1242;-66
2021/01/21 10:47:34;;;;;;;;;;;20.20;54.00;;;;;;5093136;28;1910;-66
2021/01/21 10:49:59;;;;;;;;;;;20.20;53.90;;;;;;5093311;28;1219;-66
2021/01/21 10:52:25;;;;;;;;;;;20.30;53.90;;;;;;5079469;28;1253;-66
2021/01/21 10:54:50;;;;;;;;;;;20.30;53.80;;;;;;5092893;28;1233;-66
2021/01/21 10:57:17;;;;;;;;;;;20.30;53.70;;;;;;5090038;28;1236;-66
2021/01/21 10:59:42;;;;;;;;;;;20.40;53.70;;;;;;5092941;28;1260;-66
2021/01/21 11:02:08;;;;;;;;;;;20.40;53.60;;;;;;5092850;28;1296;-66
2021/01/21 11:04:33;;;;;;;;;;;20.40;53.60;;;;;;5093110;28;1351;-66
2021/01/21 11:06:59;;;;;;;;;;;20.40;53.50;;;;;;5092979;28;1961;-66
2021/01/21 11:09:35;;;;;;;;;;;20.50;53.50;;;;;;5093013;28;1309;-66
2021/01/21 11:12:01;;;;;;;;;;;20.50;53.40;;;;;;5092854;28;1293;-66
2021/01/21 11:14:26;;;;;;;;;;;20.50;53.40;;;;;;5092520;28;1098;-66
2021/01/21 11:16:52;;;;;;;;;;;20.50;53.30;;;;;;5092461;28;1444;-66
2021/01/21 11:19:17;;;;;;;;;;;20.50;53.30;;;;;;5092743;28;1367;-66
2021/01/21 11:21:43;;;;;;;;;;;20.60;53.30;;;;;;5092776;28;1285;-66
2021/01/21 11:24:08;;;;;;;;;;;20.60;53.30;;;;;;5092658;28;1273;-66
2021/01/21 11:26:34;;;;;;;;;;;20.60;53.30;;;;;;5092175;28;1969;-66
2021/01/21 11:28:59;;;;;;;;;;;20.60;53.20;;;;;;5092928;28;1268;-66
2021/01/21 11:31:25;;;;;;;;;;;20.60;53.20;;;;;;5092367;28;1248;-66
2021/01/21 11:33:51;;;;;;;;;;;20.70;53.20;;;;;;5092443;28;1231;-66
2021/01/21 11:36:17;;;;;;;;;;;20.70;53.20;;;;;;5090834;28;1307;-66
2021/01/21 11:38:42;;;;;;;;;;;20.70;53.20;;;;;;5092611;28;1301;-66
2021/01/21 11:41:08;;;;;;;;;;;20.70;53.20;;;;;;5092223;28;1274;-66
2021/01/21 11:43:33;;;;;;;;;;;20.70;53.10;;;;;;5091025;28;1055;-66
2021/01/21 11:45:59;;;;;;;;;;;20.70;53.20;;;;;;5092046;28;1295;-66
2021/01/21 11:48:24;;;;;;;;;;;20.70;53.10;;;;;;5092225;28;1979;-66
2021/01/21 11:50:50;;;;;;;;;;;20.70;53.10;;;;;;5088105;28;1319;-66
2021/01/21 11:53:15;;;;;;;;;;;20.80;53.10;;;;;;5082153;28;1336;-66
2021/01/21 11:55:41;;;;;;;;;;;20.80;53.10;;;;;;5091476;28;1273;-66
2021/01/21 11:58:06;;;;;;;;;;;20.80;53.10;;;;;;5091911;28;1114;-66
2021/01/21 12:00:32;;;;;;;;;;;20.80;53.10;;;;;;5091857;28;1321;-66
2021/01/21 12:02:57;;;;;;;;;;;20.80;53.10;;;;;;5092152;28;1256;-66
2021/01/21 12:05:23;;;;;;;;;;;20.80;53.00;;;;;;5091908;28;1239;-66
2021/01/21 12:07:48;;;;;;;;;;;20.80;53.10;;;;;;5091826;28;1909;-66
2021/01/21 12:10:18;;;;;;;;;;;20.80;53.00;;;;;;5091874;28;1277;-66
2021/01/21 12:12:43;;;;;;;;;;;20.80;53.00;;;;;;5091988;28;1234;-66
2021/01/21 12:15:09;;;;;;;;;;;20.80;53.00;;;;;;5090448;28;1328;-66
2021/01/21 12:17:35;;;;;;;;;;;20.80;53.10;;;;;;5090451;28;1261;-66
2021/01/21 12:20:00;;;;;;;;;;;20.80;53.10;;;;;;5092155;28;1038;-66
2021/01/21 12:22:26;;;;;;;;;;;20.80;53.10;;;;;;5091860;28;1321;-66
2021/01/21 12:24:51;;;;;;;;;;;20.80;53.10;;;;;;5092159;28;1254;-66
2021/01/21 12:27:17;;;;;;;;;;;20.80;53.20;;;;;;5091631;28;1902;-66
2021/01/21 12:29:42;;;;;;;;;;;20.80;53.20;;;;;;5091700;28;1364;-66
2021/01/21 12:32:07;;;;;;;;;;;20.70;53.20;;;;;;5091974;28;1079;-66
2021/01/21 12:34:33;;;;;;;;;;;20.70;53.20;;;;;;5091652;28;1258;-66
2021/01/21 12:36:58;;;;;;;;;;;20.70;53.30;;;;;;5091720;28;1316;-66
2021/01/21 12:39:24;;;;;;;;;;;20.70;53.30;;;;;;5091569;28;1147;-66
2021/01/21 12:41:49;;;;;;;;;;;20.70;53.30;;;;;;5090459;28;1470;-66
2021/01/21 12:44:15;;;;;;;;;;;20.70;53.40;;;;;;5091533;28;1233;-66
2021/01/21 12:46:41;;;;;;;;;;;20.60;53.40;;;;;;5091494;28;1964;-66
2021/01/21 12:49:06;;;;;;;;;;;20.60;54.10;;;;;;5091691;28;1256;-66
2021/01/21 12:51:32;;;;;;;;;;;20.60;53.50;;;;;;5091561;28;1228;-66
2021/01/21 12:53:58;;;;;;;;;;;20.60;53.50;;;;;;5091509;28;1291;-65
2021/01/21 12:56:24;;;;;;;;;;;20.60;53.60;;;;;;5091095;28;1357;-66
2021/01/21 12:58:49;;;;;;;;;;;20.50;53.60;;;;;;5091472;28;1204;-66
2021/01/21 13:01:14;;;;;;;;;;;20.50;53.70;;;;;;5091938;28;1239;-66
2021/01/21 13:03:40;;;;;;;;;;;20.50;53.70;;;;;;5091242;28;1312;-66
2021/01/21 13:06:06;;;;;;;;;;;20.50;53.70;;;;;;5093905;28;1364;-66
2021/01/21 13:08:31;;;;;;;;;;;20.50;53.80;;;;;;5094126;28;1905;-66
2021/01/21 13:10:57;;;;;;;;;;;20.50;53.80;;;;;;5095532;28;1102;-66
2021/01/21 13:13:25;;;;;;;;;;;20.50;53.90;;;;;;5093862;28;1250;-67
2021/01/21 13:15:51;;;;;;;;;;;20.40;53.90;;;;;;5094888;28;1310;-67
2021/01/21 13:18:16;;;;;;;;;;;20.40;53.90;;;;;;5092239;28;1295;-67
2021/01/21 13:20:41;;;;;;;;;;;20.40;54.00;;;;;;5095026;28;1231;-67
2021/01/21 13:23:07;;;;;;;;;;;20.40;54.00;;;;;;5094988;28;1068;-67
2021/01/21 13:25:33;;;;;;;;;;;20.40;54.10;;;;;;5094506;28;1276;-66
2021/01/21 13:27:59;;;;;;;;;;;20.40;54.10;;;;;;5094681;28;1968;-66
2021/01/21 13:30:24;;;;;;;;;;;20.30;54.10;;;;;;5094725;28;1251;-66
2021/01/21 13:32:50;;;;;;;;;;;20.30;54.20;;;;;;5095017;28;1059;-67
2021/01/21 13:35:15;;;;;;;;;;;20.30;54.20;;;;;;5095055;28;1237;-67
2021/01/21 13:37:41;;;;;;;;;;;20.30;54.30;;;;;;5086440;28;2119;-67
2021/01/21 13:40:07;;;;;;;;;;;20.30;54.30;;;;;;5090480;28;1090;-67
2021/01/21 13:42:32;;;;;;;;;;;20.20;54.30;;;;;;5093742;28;1229;-67
2021/01/21 13:44:57;;;;;;;;;;;20.30;54.30;;;;;;5094130;28;1234;-67
2021/01/21 13:47:23;;;;;;;;;;;20.20;54.30;;;;;;5094227;28;1972;-67
2021/01/21 13:49:48;;;;;;;;;;;20.20;54.30;;;;;;5094837;28;1047;-66
2021/01/21 13:52:14;;;;;;;;;;;20.20;54.30;;;;;;5094327;28;1264;-67
2021/01/21 13:54:39;;;;;;;;;;;20.20;54.40;;;;;;5090009;28;1107;-67
2021/01/21 13:57:05;;;;;;;;;;;20.20;54.40;;;;;;5086706;28;1301;-66
2021/01/21 13:59:30;;;;;;;;;;;20.20;54.50;;;;;;5086557;28;1353;-67
2021/01/21 14:01:56;;;;;;;;;;;20.20;54.60;;;;;;5089445;28;1430;-67
2021/01/21 14:04:21;;;;;;;;;;;20.20;54.60;;;;;;5090297;28;1305;-67
2021/01/21 14:06:47;;;;;;;;;;;20.10;54.60;;;;;;5089756;28;1913;-67
2021/01/21 14:09:12;;;;;;;;;;;20.10;54.60;;;;;;5086271;28;1270;-67
2021/01/21 14:11:38;;;;;;;;;;;20.10;54.70;;;;;;5085088;28;1306;-67
2021/01/21 14:14:03;;;;;;;;;;;20.10;54.70;;;;;;5088711;28;1230;-67
2021/01/21 14:16:29;;;;;;;;;;;20.10;54.70;;;;;;5088855;28;1338;-67
2021/01/21 14:18:54;;;;;;;;;;;20.10;54.80;;;;;;5086150;28;1266;-67
2021/01/21 14:21:20;;;;;;;;;;;20.00;54.70;;;;;;5086094;28;1231;-67
2021/01/21 14:23:45;;;;;;;;;;;20.00;54.80;;;;;;5085838;28;1378;-67
2021/01/21 14:26:11;;;;;;;;;;;20.00;54.80;;;;;;5085700;28;1284;-66
2021/01/21 14:28:36;;;;;;;;;;;20.00;54.90;;;;;;5086500;28;1897;-67